createdAt,value
2019-02-08T00:00:14.269Z,99998
2019-02-08T00:05:14.316Z,100002
2019-02-08T00:10:14.280Z,100000
2019-02-08T00:15:14.274Z,99998
2019-02-08T00:20:14.381Z,100006
2019-02-08T00:25:14.341Z,100016
2019-02-08T00:30:14.306Z,100004
2019-02-08T00:35:14.297Z,100015
2019-02-08T00:40:14.300Z,100016
2019-02-08T00:45:14.320Z,100023
2019-02-08T00:50:14.342Z,100021
2019-02-08T00:55:14.305Z,100030
2019-02-08T01:00:14.311Z,100022
2019-02-08T01:05:14.316Z,100033
2019-02-08T01:10:14.321Z,100026
2019-02-08T01:15:14.322Z,100028
2019-02-08T01:20:14.330Z,100052
2019-02-08T01:25:14.316Z,100064
2019-02-08T01:30:14.330Z,100058
2019-02-08T01:35:14.331Z,100055
2019-02-08T01:40:14.334Z,100065
2019-02-08T01:45:14.333Z,100079
2019-02-08T01:50:14.340Z,100087
2019-02-08T01:55:14.341Z,100091
2019-02-08T02:00:14.340Z,100082
2019-02-08T02:05:14.347Z,100080
2019-02-08T02:10:14.351Z,100090
2019-02-08T02:15:14.349Z,100095
2019-02-08T02:20:14.349Z,100100
2019-02-08T02:25:14.367Z,100080
2019-02-08T02:30:14.368Z,100079
2019-02-08T02:35:14.368Z,100074
2019-02-08T02:40:14.373Z,100074
2019-02-08T02:45:14.369Z,100070
2019-02-08T02:50:14.366Z,100074
2019-02-08T02:55:14.366Z,100078
2019-02-08T03:00:14.394Z,100093
2019-02-08T03:05:14.405Z,100098
2019-02-08T03:10:14.383Z,100105
2019-02-08T03:15:14.380Z,100114
2019-02-08T03:20:14.463Z,100109
2019-02-08T03:25:14.383Z,100109
2019-02-08T03:30:14.386Z,100119
2019-02-08T03:35:14.386Z,100125
2019-02-08T03:40:14.384Z,100119
2019-02-08T03:45:14.399Z,100123
2019-02-08T03:50:14.406Z,100123
2019-02-08T03:55:14.381Z,100119
2019-02-08T04:00:14.377Z,100115
2019-02-08T04:05:14.413Z,100130
2019-02-08T04:10:14.378Z,100122
2019-02-08T04:15:14.374Z,100134
2019-02-08T04:20:14.415Z,100128
2019-02-08T04:25:14.396Z,100141
2019-02-08T04:30:14.418Z,100136
2019-02-08T04:35:14.427Z,100133
2019-02-08T04:40:14.431Z,100143
2019-02-08T04:45:14.398Z,100130
2019-02-08T04:50:14.431Z,100138
2019-02-08T04:55:14.426Z,100147
2019-02-08T05:00:14.392Z,100146
2019-02-08T05:05:14.429Z,100152
2019-02-08T05:10:14.443Z,100150
2019-02-08T05:15:14.449Z,100148
2019-02-08T05:20:14.451Z,100153
2019-02-08T05:25:14.432Z,100145
2019-02-08T05:30:14.447Z,100139
2019-02-08T05:35:14.438Z,100134
2019-02-08T05:40:14.436Z,100137
2019-02-08T05:45:14.458Z,100146
2019-02-08T05:50:14.462Z,100144
2019-02-08T05:55:14.448Z,100142
2019-02-08T06:00:14.436Z,100148
2019-02-08T06:05:14.461Z,100147
2019-02-08T06:10:14.465Z,100152
2019-02-08T06:15:14.449Z,100138
2019-02-08T06:20:14.454Z,100133
2019-02-08T06:25:14.469Z,100142
2019-02-08T06:30:14.483Z,100145
2019-02-08T06:35:14.467Z,100144
2019-02-08T06:40:14.493Z,100154
2019-02-08T06:45:14.469Z,100156
2019-02-08T06:50:14.467Z,100148
2019-02-08T06:55:14.476Z,100149
2019-02-08T07:00:14.481Z,100146
2019-02-08T07:05:14.484Z,100146
2019-02-08T07:10:14.484Z,100143
2019-02-08T07:15:14.482Z,100159
2019-02-08T07:20:14.521Z,100173
2019-02-08T07:25:18.492Z,100157
2019-02-08T07:30:14.495Z,100146
2019-02-08T07:35:14.500Z,100158
2019-02-08T07:40:14.509Z,100150
2019-02-08T07:45:14.510Z,100174
2019-02-08T07:50:14.528Z,100167
2019-02-08T07:55:14.513Z,100169
2019-02-08T08:00:14.497Z,100162
2019-02-08T08:05:14.525Z,100161
2019-02-08T08:10:14.511Z,100150
2019-02-08T08:15:14.517Z,100160
2019-02-08T08:20:14.552Z,100148
2019-02-08T08:25:14.528Z,100158
2019-02-08T08:30:14.569Z,100164
2019-02-08T08:35:14.533Z,100149
2019-02-08T08:40:14.524Z,100152
2019-02-08T08:45:14.524Z,100160
2019-02-08T08:50:14.543Z,100143
2019-02-08T08:55:14.534Z,100142
2019-02-08T09:00:14.549Z,100138
2019-02-08T09:05:14.558Z,100143
2019-02-08T09:10:14.546Z,100131
2019-02-08T09:15:14.545Z,100129
2019-02-08T09:20:14.557Z,100124
2019-02-08T09:25:14.549Z,100108
2019-02-08T09:30:14.553Z,100108
2019-02-08T09:35:14.563Z,100108
2019-02-08T09:40:14.542Z,100108
2019-02-08T09:45:14.812Z,100108
2019-02-08T09:50:14.566Z,100108
2019-02-08T09:55:14.595Z,100108
2019-02-08T10:00:14.581Z,100108
2019-02-08T10:05:14.585Z,100108
2019-02-08T10:10:14.797Z,100108
2019-02-08T10:15:14.563Z,100108
2019-02-08T10:20:14.665Z,100123
2019-02-08T10:25:14.652Z,100114
2019-02-08T10:30:14.566Z,100114
2019-02-08T10:35:14.588Z,100124
2019-02-08T10:40:14.589Z,100118
2019-02-08T10:45:14.599Z,100107
2019-02-08T10:50:14.600Z,100095
2019-02-08T10:55:14.608Z,100094
2019-02-08T11:00:14.594Z,100087
2019-02-08T11:05:14.666Z,100077
2019-02-08T11:10:14.604Z,100080
2019-02-08T11:15:14.630Z,100089
2019-02-08T11:20:14.611Z,100086
2019-02-08T11:25:14.600Z,100073
2019-02-08T11:30:14.597Z,100079
2019-02-08T11:35:14.622Z,100087
2019-02-08T11:40:14.606Z,100090
2019-02-08T11:45:14.613Z,100091
2019-02-08T11:50:14.625Z,100079
2019-02-08T11:55:14.609Z,100073
2019-02-08T12:00:14.695Z,100081
2019-02-08T12:05:14.631Z,100064
2019-02-08T12:10:14.620Z,100077
2019-02-08T12:15:14.637Z,100076
2019-02-08T12:20:14.654Z,100066
2019-02-08T12:25:14.633Z,100068
2019-02-08T12:30:14.645Z,100062
2019-02-08T12:35:14.640Z,100061
2019-02-08T12:40:14.634Z,100048
2019-02-08T12:45:14.634Z,100050
2019-02-08T12:50:14.660Z,100054
2019-02-08T12:55:14.650Z,100048
2019-02-08T13:00:14.740Z,100047
2019-02-08T13:05:14.684Z,100047
2019-02-08T13:10:14.654Z,100038
2019-02-08T13:15:14.652Z,100039
2019-02-08T13:20:14.673Z,100041
2019-02-08T13:25:14.658Z,100016
2019-02-08T13:30:14.689Z,100024
2019-02-08T13:35:14.667Z,100024
2019-02-08T13:40:14.686Z,100009
2019-02-08T13:45:14.673Z,100009
2019-02-08T13:50:14.682Z,100004
2019-02-08T13:55:14.679Z,100005
2019-02-08T14:00:14.696Z,100002
2019-02-08T14:05:14.683Z,99991
2019-02-08T14:10:14.686Z,99992
2019-02-08T14:15:14.685Z,99988
2019-02-08T14:20:14.689Z,99997
2019-02-08T14:25:14.701Z,99986
2019-02-08T14:30:14.679Z,100001
2019-02-08T14:35:14.710Z,99988
2019-02-08T14:40:14.762Z,99975
2019-02-08T14:45:14.753Z,99968
2019-02-08T14:50:14.704Z,99968
2019-02-08T14:55:14.719Z,99953
2019-02-08T15:00:14.700Z,99955
2019-02-08T15:05:14.733Z,99964
2019-02-08T15:10:14.724Z,99943
2019-02-08T15:15:14.725Z,99945
2019-02-08T15:20:14.715Z,99952
2019-02-08T15:25:14.736Z,99953
2019-02-08T15:30:14.717Z,99947
2019-02-08T15:35:14.816Z,99948
2019-02-08T15:40:14.748Z,99942
2019-02-08T15:45:14.756Z,99934
2019-02-08T15:50:14.727Z,99932
2019-02-08T15:55:14.747Z,99948
2019-02-08T16:00:14.735Z,99953
2019-02-08T16:05:14.735Z,99939
2019-02-08T16:10:14.756Z,99959
2019-02-08T16:15:14.756Z,99945
2019-02-08T16:20:14.754Z,99941
2019-02-08T16:25:14.777Z,99929
2019-02-08T16:30:14.753Z,99919
2019-02-08T16:35:14.775Z,99917
2019-02-08T16:40:14.771Z,99912
2019-02-08T16:45:14.758Z,99916
2019-02-08T16:50:14.757Z,99898
2019-02-08T16:55:14.775Z,99911
2019-02-08T17:00:14.772Z,99906
2019-02-08T17:05:14.789Z,99905
2019-02-08T17:10:14.802Z,99890
2019-02-08T17:15:14.780Z,99889
2019-02-08T17:20:14.770Z,99877
2019-02-08T17:25:14.796Z,99856
2019-02-08T17:30:14.771Z,99862
2019-02-08T17:35:14.777Z,99865
2019-02-08T17:40:14.810Z,99861
2019-02-08T17:45:14.791Z,99856
2019-02-08T17:50:14.788Z,99836
2019-02-08T17:55:14.809Z,99844
2019-02-08T18:00:14.781Z,99843
2019-02-08T18:05:14.791Z,99832
2019-02-08T18:10:14.820Z,99827
2019-02-08T18:15:14.814Z,99826
2019-02-08T18:20:14.806Z,99806
2019-02-08T18:25:14.829Z,99788
2019-02-08T18:30:14.803Z,99781
2019-02-08T18:35:14.825Z,99788
2019-02-08T18:40:14.826Z,99772
2019-02-08T18:45:14.822Z,99768
2019-02-08T18:50:14.819Z,99775
2019-02-08T18:55:14.829Z,99774
2019-02-08T19:00:14.846Z,99765
2019-02-08T19:05:14.835Z,99755
2019-02-08T19:10:14.839Z,99748
2019-02-08T19:15:14.838Z,99741
2019-02-08T19:20:14.828Z,99735
2019-02-08T19:25:14.846Z,99736
2019-02-08T19:30:14.854Z,99740
2019-02-08T19:35:14.847Z,99727
2019-02-08T19:40:14.858Z,99717
2019-02-08T19:45:14.839Z,99692
2019-02-08T19:50:14.844Z,99695
2019-02-08T19:55:14.875Z,99687
2019-02-08T20:00:14.855Z,99685
2019-02-08T20:05:14.851Z,99663
2019-02-08T20:10:14.870Z,99654
2019-02-08T20:15:14.847Z,99658
2019-02-08T20:20:14.857Z,99642
2019-02-08T20:25:14.879Z,99630
2019-02-08T20:30:14.867Z,99630
2019-02-08T20:35:14.879Z,99630
2019-02-08T20:40:14.925Z,99620
2019-02-08T20:45:14.874Z,99618
2019-02-08T20:50:14.929Z,99598
2019-02-08T20:55:14.893Z,99604
2019-02-08T21:00:14.881Z,99605
2019-02-08T21:05:14.880Z,99590
2019-02-08T21:10:14.919Z,99594
2019-02-08T21:15:14.880Z,99600
2019-02-08T21:20:14.909Z,99594
2019-02-08T21:25:14.908Z,99568
2019-02-08T21:30:14.895Z,99569
2019-02-08T21:35:14.916Z,99567
2019-02-08T21:40:15.012Z,99567
2019-02-08T21:45:14.903Z,99563
2019-02-08T21:50:14.903Z,99546
2019-02-08T21:55:14.932Z,99544
2019-02-08T22:00:14.922Z,99529
2019-02-08T22:05:14.937Z,99540
2019-02-08T22:10:14.962Z,99525
2019-02-08T22:15:14.930Z,99524
2019-02-08T22:20:14.910Z,99515
2019-02-08T22:25:14.971Z,99523
2019-02-08T22:30:14.944Z,99518
2019-02-08T22:35:15.144Z,99509
2019-02-08T22:40:14.964Z,99507
2019-02-08T22:45:14.932Z,99490
2019-02-08T22:50:14.924Z,99490
2019-02-08T22:55:14.978Z,99484
2019-02-08T23:00:14.932Z,99469
2019-02-08T23:05:14.955Z,99452
2019-02-08T23:10:14.964Z,99453
2019-02-08T23:15:14.980Z,99443
2019-02-08T23:20:14.962Z,99445
2019-02-08T23:25:14.960Z,99427
2019-02-08T23:30:14.960Z,99431
2019-02-08T23:35:14.992Z,99410
2019-02-08T23:40:14.986Z,99409
2019-02-08T23:45:14.974Z,99377
2019-02-08T23:50:14.993Z,99368
2019-02-08T23:55:14.982Z,99376
